sensor_id;sensor_type;location;lat;lon;timestamp;P1;durP1;ratioP1;P2;durP2;ratioP2
18520;SDS011;9390;51.244;6.982;2023-07-29T00:02:10;14.70;;;6.25;;
18520;SDS011;9390;51.244;6.982;2023-07-29T00:04:42;16.75;;;5.78;;
18520;SDS011;9390;51.244;6.982;2023-07-29T00:07:13;16.05;;;6.03;;
18520;SDS011;9390;51.244;6.982;2023-07-29T00:09:44;12.82;;;5.38;;
18520;SDS011;9390;51.244;6.982;2023-07-29T00:12:16;17.55;;;6.13;;
18520;SDS011;9390;51.244;6.982;2023-07-29T00:14:47;13.15;;;5.18;;
18520;SDS011;9390;51.244;6.982;2023-07-29T00:17:20;13.98;;;5.70;;
18520;SDS011;9390;51.244;6.982;2023-07-29T00:19:51;12.40;;;4.55;;
18520;SDS011;9390;51.244;6.982;2023-07-29T00:22:23;13.50;;;5.18;;
18520;SDS011;9390;51.244;6.982;2023-07-29T00:24:54;14.45;;;4.88;;
18520;SDS011;9390;51.244;6.982;2023-07-29T00:27:27;11.85;;;4.75;;
18520;SDS011;9390;51.244;6.982;2023-07-29T00:29:58;9.05;;;4.70;;
18520;SDS011;9390;51.244;6.982;2023-07-29T00:32:31;12.32;;;4.88;;
18520;SDS011;9390;51.244;6.982;2023-07-29T00:35:03;14.00;;;4.40;;
18520;SDS011;9390;51.244;6.982;2023-07-29T00:37:35;10.80;;;4.68;;
18520;SDS011;9390;51.244;6.982;2023-07-29T00:40:09;10.88;;;4.07;;
18520;SDS011;9390;51.244;6.982;2023-07-29T00:42:45;15.13;;;4.57;;
18520;SDS011;9390;51.244;6.982;2023-07-29T00:45:18;8.82;;;4.35;;
18520;SDS011;9390;51.244;6.982;2023-07-29T00:47:51;10.00;;;4.18;;
18520;SDS011;9390;51.244;6.982;2023-07-29T00:50:22;11.50;;;4.88;;
18520;SDS011;9390;51.244;6.982;2023-07-29T00:52:54;10.32;;;4.78;;
18520;SDS011;9390;51.244;6.982;2023-07-29T00:55:26;10.48;;;5.03;;
18520;SDS011;9390;51.244;6.982;2023-07-29T00:57:58;12.82;;;4.82;;
18520;SDS011;9390;51.244;6.982;2023-07-29T01:00:29;12.48;;;5.70;;
18520;SDS011;9390;51.244;6.982;2023-07-29T01:03:02;11.27;;;5.20;;
18520;SDS011;9390;51.244;6.982;2023-07-29T01:05:36;13.13;;;5.03;;
18520;SDS011;9390;51.244;6.982;2023-07-29T01:08:15;12.30;;;4.93;;
18520;SDS011;9390;51.244;6.982;2023-07-29T01:10:51;11.50;;;4.85;;
18520;SDS011;9390;51.244;6.982;2023-07-29T01:13:29;12.05;;;5.13;;
18520;SDS011;9390;51.244;6.982;2023-07-29T01:16:05;10.57;;;4.72;;
18520;SDS011;9390;51.244;6.982;2023-07-29T01:18:42;14.48;;;4.45;;
18520;SDS011;9390;51.244;6.982;2023-07-29T01:21:17;10.82;;;4.32;;
18520;SDS011;9390;51.244;6.982;2023-07-29T01:23:53;10.82;;;4.85;;
18520;SDS011;9390;51.244;6.982;2023-07-29T01:26:24;14.70;;;4.78;;
18520;SDS011;9390;51.244;6.982;2023-07-29T01:28:56;10.50;;;4.85;;
18520;SDS011;9390;51.244;6.982;2023-07-29T01:31:30;14.65;;;5.53;;
18520;SDS011;9390;51.244;6.982;2023-07-29T01:34:05;9.50;;;5.00;;
18520;SDS011;9390;51.244;6.982;2023-07-29T01:36:44;15.18;;;5.03;;
18520;SDS011;9390;51.244;6.982;2023-07-29T01:39:17;11.98;;;5.05;;
18520;SDS011;9390;51.244;6.982;2023-07-29T01:41:52;12.55;;;4.88;;
18520;SDS011;9390;51.244;6.982;2023-07-29T01:44:24;12.52;;;5.47;;
18520;SDS011;9390;51.244;6.982;2023-07-29T01:46:55;14.18;;;5.45;;
18520;SDS011;9390;51.244;6.982;2023-07-29T01:49:27;13.82;;;5.85;;
18520;SDS011;9390;51.244;6.982;2023-07-29T01:51:58;9.85;;;5.22;;
18520;SDS011;9390;51.244;6.982;2023-07-29T01:54:31;15.45;;;5.90;;
18520;SDS011;9390;51.244;6.982;2023-07-29T01:57:03;10.50;;;5.88;;
18520;SDS011;9390;51.244;6.982;2023-07-29T01:59:34;16.08;;;5.47;;
18520;SDS011;9390;51.244;6.982;2023-07-29T02:02:06;15.30;;;5.85;;
18520;SDS011;9390;51.244;6.982;2023-07-29T02:04:37;12.32;;;5.55;;
18520;SDS011;9390;51.244;6.982;2023-07-29T02:07:08;15.65;;;5.43;;
18520;SDS011;9390;51.244;6.982;2023-07-29T02:09:41;13.68;;;5.57;;
18520;SDS011;9390;51.244;6.982;2023-07-29T02:14:44;12.85;;;5.97;;
18520;SDS011;9390;51.244;6.982;2023-07-29T02:17:16;17.30;;;6.32;;
18520;SDS011;9390;51.244;6.982;2023-07-29T02:19:48;18.08;;;6.50;;
18520;SDS011;9390;51.244;6.982;2023-07-29T02:22:19;14.25;;;6.57;;
18520;SDS011;9390;51.244;6.982;2023-07-29T02:24:52;17.15;;;6.15;;
18520;SDS011;9390;51.244;6.982;2023-07-29T02:27:23;13.75;;;7.05;;
18520;SDS011;9390;51.244;6.982;2023-07-29T02:29:57;15.80;;;6.70;;
18520;SDS011;9390;51.244;6.982;2023-07-29T02:32:28;12.27;;;6.18;;
18520;SDS011;9390;51.244;6.982;2023-07-29T02:34:59;17.10;;;6.80;;
18520;SDS011;9390;51.244;6.982;2023-07-29T02:37:31;12.98;;;6.13;;
18520;SDS011;9390;51.244;6.982;2023-07-29T02:40:04;14.45;;;6.40;;
18520;SDS011;9390;51.244;6.982;2023-07-29T02:42:36;15.75;;;6.72;;
18520;SDS011;9390;51.244;6.982;2023-07-29T02:45:08;14.02;;;6.68;;
18520;SDS011;9390;51.244;6.982;2023-07-29T02:47:41;19.05;;;6.53;;
18520;SDS011;9390;51.244;6.982;2023-07-29T02:50:12;17.65;;;7.90;;
18520;SDS011;9390;51.244;6.982;2023-07-29T02:52:44;20.90;;;7.65;;
18520;SDS011;9390;51.244;6.982;2023-07-29T02:55:16;19.90;;;7.82;;
18520;SDS011;9390;51.244;6.982;2023-07-29T02:57:48;19.98;;;8.45;;
18520;SDS011;9390;51.244;6.982;2023-07-29T03:00:19;19.63;;;7.88;;
18520;SDS011;9390;51.244;6.982;2023-07-29T03:02:50;15.65;;;8.15;;
18520;SDS011;9390;51.244;6.982;2023-07-29T03:05:22;20.83;;;8.63;;
18520;SDS011;9390;51.244;6.982;2023-07-29T03:07:54;19.17;;;10.40;;
18520;SDS011;9390;51.244;6.982;2023-07-29T03:10:27;23.63;;;11.60;;
18520;SDS011;9390;51.244;6.982;2023-07-29T03:12:58;29.58;;;11.55;;
18520;SDS011;9390;51.244;6.982;2023-07-29T03:15:29;24.42;;;10.23;;
18520;SDS011;9390;51.244;6.982;2023-07-29T03:18:01;24.27;;;10.07;;
18520;SDS011;9390;51.244;6.982;2023-07-29T03:20:32;26.02;;;10.10;;
18520;SDS011;9390;51.244;6.982;2023-07-29T03:23:04;21.63;;;9.77;;
18520;SDS011;9390;51.244;6.982;2023-07-29T03:25:36;27.70;;;10.00;;
18520;SDS011;9390;51.244;6.982;2023-07-29T03:28:08;24.00;;;10.15;;
18520;SDS011;9390;51.244;6.982;2023-07-29T03:30:39;21.15;;;10.40;;
18520;SDS011;9390;51.244;6.982;2023-07-29T03:33:10;25.67;;;10.88;;
18520;SDS011;9390;51.244;6.982;2023-07-29T03:35:42;26.58;;;12.52;;
18520;SDS011;9390;51.244;6.982;2023-07-29T03:38:14;30.42;;;12.68;;
18520;SDS011;9390;51.244;6.982;2023-07-29T03:40:47;36.30;;;13.38;;
18520;SDS011;9390;51.244;6.982;2023-07-29T03:43:19;43.22;;;13.95;;
18520;SDS011;9390;51.244;6.982;2023-07-29T03:45:51;25.75;;;13.45;;
18520;SDS011;9390;51.244;6.982;2023-07-29T03:48:22;37.28;;;12.68;;
18520;SDS011;9390;51.244;6.982;2023-07-29T03:50:53;40.97;;;14.48;;
18520;SDS011;9390;51.244;6.982;2023-07-29T03:53:25;34.25;;;12.82;;
18520;SDS011;9390;51.244;6.982;2023-07-29T03:55:58;25.40;;;13.68;;
18520;SDS011;9390;51.244;6.982;2023-07-29T03:58:29;40.55;;;14.68;;
18520;SDS011;9390;51.244;6.982;2023-07-29T04:01:01;41.97;;;13.35;;
18520;SDS011;9390;51.244;6.982;2023-07-29T04:03:32;33.17;;;13.45;;
18520;SDS011;9390;51.244;6.982;2023-07-29T04:06:04;36.67;;;13.57;;
18520;SDS011;9390;51.244;6.982;2023-07-29T04:08:35;30.20;;;13.30;;
18520;SDS011;9390;51.244;6.982;2023-07-29T04:11:08;33.85;;;13.98;;
18520;SDS011;9390;51.244;6.982;2023-07-29T04:13:40;39.88;;;15.05;;
18520;SDS011;9390;51.244;6.982;2023-07-29T04:16:11;35.17;;;13.98;;
18520;SDS011;9390;51.244;6.982;2023-07-29T04:18:43;43.78;;;14.77;;
18520;SDS011;9390;51.244;6.982;2023-07-29T04:21:14;34.17;;;15.02;;
18520;SDS011;9390;51.244;6.982;2023-07-29T04:23:46;31.48;;;15.73;;
18520;SDS011;9390;51.244;6.982;2023-07-29T04:26:18;32.00;;;15.15;;
18520;SDS011;9390;51.244;6.982;2023-07-29T04:28:50;31.80;;;14.43;;
18520;SDS011;9390;51.244;6.982;2023-07-29T04:31:21;23.50;;;13.10;;
18520;SDS011;9390;51.244;6.982;2023-07-29T04:33:53;25.08;;;12.75;;
18520;SDS011;9390;51.244;6.982;2023-07-29T04:36:24;30.15;;;12.05;;
18520;SDS011;9390;51.244;6.982;2023-07-29T04:38:55;21.85;;;10.95;;
18520;SDS011;9390;51.244;6.982;2023-07-29T04:41:28;22.17;;;10.75;;
18520;SDS011;9390;51.244;6.982;2023-07-29T04:44:00;23.65;;;10.65;;
18520;SDS011;9390;51.244;6.982;2023-07-29T04:46:31;19.67;;;9.43;;
18520;SDS011;9390;51.244;6.982;2023-07-29T04:49:02;18.35;;;8.80;;
18520;SDS011;9390;51.244;6.982;2023-07-29T04:51:34;23.15;;;10.45;;
18520;SDS011;9390;51.244;6.982;2023-07-29T04:54:07;18.02;;;9.50;;
18520;SDS011;9390;51.244;6.982;2023-07-29T04:56:39;18.95;;;10.02;;
18520;SDS011;9390;51.244;6.982;2023-07-29T04:59:11;20.83;;;10.30;;
18520;SDS011;9390;51.244;6.982;2023-07-29T05:01:43;21.02;;;10.55;;
18520;SDS011;9390;51.244;6.982;2023-07-29T05:04:14;18.10;;;9.82;;
18520;SDS011;9390;51.244;6.982;2023-07-29T05:06:46;24.58;;;10.75;;
18520;SDS011;9390;51.244;6.982;2023-07-29T05:09:17;17.77;;;10.23;;
18520;SDS011;9390;51.244;6.982;2023-07-29T05:11:51;21.02;;;10.38;;
18520;SDS011;9390;51.244;6.982;2023-07-29T05:14:22;19.60;;;9.18;;
18520;SDS011;9390;51.244;6.982;2023-07-29T05:16:54;18.60;;;9.32;;
18520;SDS011;9390;51.244;6.982;2023-07-29T05:19:25;15.55;;;7.47;;
18520;SDS011;9390;51.244;6.982;2023-07-29T05:21:57;16.08;;;7.72;;
18520;SDS011;9390;51.244;6.982;2023-07-29T05:24:28;13.93;;;7.55;;
18520;SDS011;9390;51.244;6.982;2023-07-29T05:27:01;13.00;;;6.63;;
18520;SDS011;9390;51.244;6.982;2023-07-29T05:32:04;11.98;;;7.10;;
18520;SDS011;9390;51.244;6.982;2023-07-29T05:34:36;16.80;;;6.95;;
18520;SDS011;9390;51.244;6.982;2023-07-29T05:37:08;13.40;;;7.00;;
18520;SDS011;9390;51.244;6.982;2023-07-29T05:39:39;18.45;;;7.88;;
18520;SDS011;9390;51.244;6.982;2023-07-29T05:42:12;16.30;;;7.65;;
18520;SDS011;9390;51.244;6.982;2023-07-29T05:44:43;13.52;;;7.65;;
18520;SDS011;9390;51.244;6.982;2023-07-29T05:47:15;16.33;;;7.72;;
18520;SDS011;9390;51.244;6.982;2023-07-29T05:49:46;17.15;;;8.05;;
18520;SDS011;9390;51.244;6.982;2023-07-29T05:52:18;15.13;;;7.70;;
18520;SDS011;9390;51.244;6.982;2023-07-29T05:54:49;16.20;;;7.43;;
18520;SDS011;9390;51.244;6.982;2023-07-29T05:57:22;18.00;;;8.25;;
18520;SDS011;9390;51.244;6.982;2023-07-29T05:59:54;14.57;;;7.63;;
18520;SDS011;9390;51.244;6.982;2023-07-29T06:02:25;15.38;;;7.95;;
18520;SDS011;9390;51.244;6.982;2023-07-29T06:04:56;15.75;;;7.68;;
18520;SDS011;9390;51.244;6.982;2023-07-29T06:07:28;19.40;;;7.75;;
18520;SDS011;9390;51.244;6.982;2023-07-29T06:10:00;14.18;;;7.88;;
18520;SDS011;9390;51.244;6.982;2023-07-29T06:12:33;16.35;;;7.93;;
18520;SDS011;9390;51.244;6.982;2023-07-29T06:15:05;16.92;;;6.93;;
18520;SDS011;9390;51.244;6.982;2023-07-29T06:17:37;14.00;;;6.75;;
18520;SDS011;9390;51.244;6.982;2023-07-29T06:20:09;14.13;;;6.65;;
18520;SDS011;9390;51.244;6.982;2023-07-29T06:22:43;12.65;;;6.10;;
18520;SDS011;9390;51.244;6.982;2023-07-29T06:25:15;12.57;;;6.22;;
18520;SDS011;9390;51.244;6.982;2023-07-29T06:27:48;15.00;;;6.60;;
18520;SDS011;9390;51.244;6.982;2023-07-29T06:30:19;11.45;;;5.60;;
18520;SDS011;9390;51.244;6.982;2023-07-29T06:32:50;11.20;;;5.18;;
18520;SDS011;9390;51.244;6.982;2023-07-29T06:35:22;9.23;;;5.07;;
18520;SDS011;9390;51.244;6.982;2023-07-29T06:37:53;10.18;;;5.45;;
18520;SDS011;9390;51.244;6.982;2023-07-29T06:40:25;12.30;;;5.38;;
18520;SDS011;9390;51.244;6.982;2023-07-29T06:42:57;10.27;;;5.28;;
18520;SDS011;9390;51.244;6.982;2023-07-29T06:45:29;12.23;;;5.30;;
18520;SDS011;9390;51.244;6.982;2023-07-29T06:48:00;10.90;;;5.28;;
18520;SDS011;9390;51.244;6.982;2023-07-29T06:50:32;10.53;;;4.90;;
18520;SDS011;9390;51.244;6.982;2023-07-29T06:53:04;15.45;;;5.15;;
18520;SDS011;9390;51.244;6.982;2023-07-29T06:55:35;9.38;;;4.30;;
18520;SDS011;9390;51.244;6.982;2023-07-29T06:58:08;8.65;;;4.00;;
18520;SDS011;9390;51.244;6.982;2023-07-29T07:00:40;8.23;;;3.65;;
18520;SDS011;9390;51.244;6.982;2023-07-29T07:03:11;5.75;;;2.92;;
18520;SDS011;9390;51.244;6.982;2023-07-29T07:05:43;7.03;;;3.05;;
18520;SDS011;9390;51.244;6.982;2023-07-29T07:08:14;7.18;;;3.30;;
18520;SDS011;9390;51.244;6.982;2023-07-29T07:10:46;8.10;;;3.30;;
18520;SDS011;9390;51.244;6.982;2023-07-29T07:13:19;10.17;;;3.37;;
18520;SDS011;9390;51.244;6.982;2023-07-29T07:15:50;6.20;;;2.67;;
18520;SDS011;9390;51.244;6.982;2023-07-29T07:18:22;6.47;;;2.85;;
18520;SDS011;9390;51.244;6.982;2023-07-29T07:20:53;6.28;;;2.78;;
18520;SDS011;9390;51.244;6.982;2023-07-29T07:23:25;7.72;;;3.15;;
18520;SDS011;9390;51.244;6.982;2023-07-29T07:25:56;7.90;;;2.97;;
18520;SDS011;9390;51.244;6.982;2023-07-29T07:28:29;8.98;;;3.30;;
18520;SDS011;9390;51.244;6.982;2023-07-29T07:31:00;8.48;;;3.78;;
18520;SDS011;9390;51.244;6.982;2023-07-29T07:33:31;7.43;;;3.63;;
18520;SDS011;9390;51.244;6.982;2023-07-29T07:36:03;6.35;;;3.40;;
18520;SDS011;9390;51.244;6.982;2023-07-29T07:38:35;5.82;;;3.35;;
18520;SDS011;9390;51.244;6.982;2023-07-29T07:41:06;9.48;;;4.20;;
18520;SDS011;9390;51.244;6.982;2023-07-29T07:43:39;13.20;;;4.05;;
18520;SDS011;9390;51.244;6.982;2023-07-29T07:46:10;8.05;;;3.50;;
18520;SDS011;9390;51.244;6.982;2023-07-29T07:48:42;10.15;;;3.42;;
18520;SDS011;9390;51.244;6.982;2023-07-29T07:51:13;6.68;;;3.55;;
18520;SDS011;9390;51.244;6.982;2023-07-29T07:53:45;8.60;;;3.40;;
18520;SDS011;9390;51.244;6.982;2023-07-29T07:56:16;7.25;;;3.10;;
18520;SDS011;9390;51.244;6.982;2023-07-29T07:58:49;7.68;;;2.75;;
18520;SDS011;9390;51.244;6.982;2023-07-29T08:01:20;8.40;;;3.28;;
18520;SDS011;9390;51.244;6.982;2023-07-29T08:03:51;7.10;;;3.03;;
18520;SDS011;9390;51.244;6.982;2023-07-29T08:06:23;8.68;;;3.10;;
18520;SDS011;9390;51.244;6.982;2023-07-29T08:08:54;7.03;;;2.78;;
18520;SDS011;9390;51.244;6.982;2023-07-29T08:11:26;6.03;;;2.70;;
18520;SDS011;9390;51.244;6.982;2023-07-29T08:13:59;8.07;;;2.55;;
18520;SDS011;9390;51.244;6.982;2023-07-29T08:16:30;4.63;;;2.15;;
18520;SDS011;9390;51.244;6.982;2023-07-29T08:19:02;4.85;;;2.45;;
18520;SDS011;9390;51.244;6.982;2023-07-29T08:21:33;5.00;;;2.20;;
18520;SDS011;9390;51.244;6.982;2023-07-29T08:24:05;5.72;;;2.30;;
18520;SDS011;9390;51.244;6.982;2023-07-29T08:26:37;6.38;;;2.78;;
18520;SDS011;9390;51.244;6.982;2023-07-29T08:29:10;6.72;;;2.58;;
18520;SDS011;9390;51.244;6.982;2023-07-29T08:31:42;5.40;;;2.50;;
18520;SDS011;9390;51.244;6.982;2023-07-29T08:34:13;5.57;;;2.40;;
18520;SDS011;9390;51.244;6.982;2023-07-29T08:36:44;9.68;;;1.92;;
18520;SDS011;9390;51.244;6.982;2023-07-29T08:39:16;4.40;;;2.20;;
18520;SDS011;9390;51.244;6.982;2023-07-29T08:41:49;4.60;;;2.15;;
18520;SDS011;9390;51.244;6.982;2023-07-29T08:44:25;6.32;;;2.28;;
18520;SDS011;9390;51.244;6.982;2023-07-29T08:46:57;4.63;;;1.75;;
18520;SDS011;9390;51.244;6.982;2023-07-29T08:49:31;6.10;;;1.95;;
18520;SDS011;9390;51.244;6.982;2023-07-29T08:52:03;5.55;;;1.73;;
18520;SDS011;9390;51.244;6.982;2023-07-29T08:54:35;4.07;;;1.90;;
18520;SDS011;9390;51.244;6.982;2023-07-29T08:57:07;4.13;;;1.60;;
18520;SDS011;9390;51.244;6.982;2023-07-29T08:59:40;3.55;;;1.65;;
18520;SDS011;9390;51.244;6.982;2023-07-29T09:04:43;4.75;;;1.98;;
18520;SDS011;9390;51.244;6.982;2023-07-29T09:07:14;3.38;;;1.40;;
18520;SDS011;9390;51.244;6.982;2023-07-29T09:09:46;4.95;;;1.40;;
18520;SDS011;9390;51.244;6.982;2023-07-29T09:12:17;6.95;;;2.00;;
18520;SDS011;9390;51.244;6.982;2023-07-29T09:14:52;3.03;;;1.30;;
18520;SDS011;9390;51.244;6.982;2023-07-29T09:17:24;3.95;;;1.27;;
18520;SDS011;9390;51.244;6.982;2023-07-29T09:19:56;2.55;;;1.20;;
18520;SDS011;9390;51.244;6.982;2023-07-29T09:22:27;3.15;;;1.38;;
18520;SDS011;9390;51.244;6.982;2023-07-29T09:24:59;2.63;;;1.10;;
18520;SDS011;9390;51.244;6.982;2023-07-29T09:27:30;6.88;;;1.70;;
18520;SDS011;9390;51.244;6.982;2023-07-29T09:30:04;3.15;;;1.25;;
18520;SDS011;9390;51.244;6.982;2023-07-29T09:32:37;2.05;;;1.17;;
18520;SDS011;9390;51.244;6.982;2023-07-29T09:35:10;6.00;;;1.50;;
18520;SDS011;9390;51.244;6.982;2023-07-29T09:37:43;3.50;;;1.52;;
18520;SDS011;9390;51.244;6.982;2023-07-29T09:40:14;4.53;;;1.50;;
18520;SDS011;9390;51.244;6.982;2023-07-29T09:42:47;3.45;;;1.25;;
18520;SDS011;9390;51.244;6.982;2023-07-29T09:45:21;3.40;;;1.63;;
18520;SDS011;9390;51.244;6.982;2023-07-29T09:47:54;3.17;;;1.50;;
18520;SDS011;9390;51.244;6.982;2023-07-29T09:50:25;2.93;;;1.50;;
18520;SDS011;9390;51.244;6.982;2023-07-29T09:52:57;4.93;;;1.73;;
18520;SDS011;9390;51.244;6.982;2023-07-29T09:55:32;2.60;;;1.10;;
18520;SDS011;9390;51.244;6.982;2023-07-29T09:58:03;3.50;;;1.50;;
18520;SDS011;9390;51.244;6.982;2023-07-29T10:00:39;5.00;;;1.33;;
18520;SDS011;9390;51.244;6.982;2023-07-29T10:05:42;7.50;;;1.52;;
18520;SDS011;9390;51.244;6.982;2023-07-29T10:08:13;2.72;;;1.40;;
18520;SDS011;9390;51.244;6.982;2023-07-29T10:10:45;3.65;;;1.77;;
18520;SDS011;9390;51.244;6.982;2023-07-29T10:13:17;4.55;;;1.65;;
18520;SDS011;9390;51.244;6.982;2023-07-29T10:15:49;2.85;;;1.60;;
18520;SDS011;9390;51.244;6.982;2023-07-29T10:20:52;3.70;;;1.40;;
18520;SDS011;9390;51.244;6.982;2023-07-29T10:23:26;3.38;;;1.40;;
18520;SDS011;9390;51.244;6.982;2023-07-29T10:25:59;3.53;;;1.50;;
18520;SDS011;9390;51.244;6.982;2023-07-29T10:28:34;4.05;;;1.60;;
18520;SDS011;9390;51.244;6.982;2023-07-29T10:31:12;6.97;;;1.48;;
18520;SDS011;9390;51.244;6.982;2023-07-29T10:33:44;6.75;;;1.52;;
18520;SDS011;9390;51.244;6.982;2023-07-29T10:36:15;4.25;;;1.70;;
18520;SDS011;9390;51.244;6.982;2023-07-29T10:38:47;4.30;;;1.40;;
18520;SDS011;9390;51.244;6.982;2023-07-29T10:41:19;3.58;;;1.25;;
18520;SDS011;9390;51.244;6.982;2023-07-29T10:43:50;5.10;;;1.48;;
18520;SDS011;9390;51.244;6.982;2023-07-29T10:46:23;3.80;;;1.23;;
18520;SDS011;9390;51.244;6.982;2023-07-29T10:51:27;3.40;;;1.40;;
18520;SDS011;9390;51.244;6.982;2023-07-29T10:54:01;2.40;;;1.30;;
18520;SDS011;9390;51.244;6.982;2023-07-29T10:56:33;4.97;;;1.40;;
18520;SDS011;9390;51.244;6.982;2023-07-29T11:02:12;2.70;;;1.40;;
18520;SDS011;9390;51.244;6.982;2023-07-29T11:04:46;3.80;;;1.38;;
18520;SDS011;9390;51.244;6.982;2023-07-29T11:07:19;4.43;;;1.50;;
18520;SDS011;9390;51.244;6.982;2023-07-29T11:09:57;3.72;;;1.48;;
18520;SDS011;9390;51.244;6.982;2023-07-29T11:12:40;3.60;;;1.40;;
18520;SDS011;9390;51.244;6.982;2023-07-29T11:15:20;4.78;;;1.80;;
18520;SDS011;9390;51.244;6.982;2023-07-29T11:17:54;3.35;;;1.45;;
18520;SDS011;9390;51.244;6.982;2023-07-29T11:20:27;3.47;;;1.73;;
18520;SDS011;9390;51.244;6.982;2023-07-29T11:22:59;2.75;;;1.52;;
18520;SDS011;9390;51.244;6.982;2023-07-29T11:25:31;3.00;;;1.55;;
18520;SDS011;9390;51.244;6.982;2023-07-29T11:28:05;4.70;;;1.40;;
18520;SDS011;9390;51.244;6.982;2023-07-29T11:30:38;3.88;;;1.70;;
18520;SDS011;9390;51.244;6.982;2023-07-29T11:35:42;3.00;;;1.30;;
18520;SDS011;9390;51.244;6.982;2023-07-29T11:38:17;5.47;;;1.80;;
18520;SDS011;9390;51.244;6.982;2023-07-29T11:40:55;4.45;;;1.55;;
18520;SDS011;9390;51.244;6.982;2023-07-29T11:43:34;4.78;;;1.50;;
18520;SDS011;9390;51.244;6.982;2023-07-29T11:46:06;3.72;;;1.65;;
18520;SDS011;9390;51.244;6.982;2023-07-29T11:48:39;2.37;;;1.20;;
18520;SDS011;9390;51.244;6.982;2023-07-29T11:51:12;4.00;;;1.52;;
18520;SDS011;9390;51.244;6.982;2023-07-29T11:53:43;4.00;;;1.60;;
18520;SDS011;9390;51.244;6.982;2023-07-29T11:56:15;3.72;;;1.75;;
18520;SDS011;9390;51.244;6.982;2023-07-29T11:58:47;3.92;;;1.58;;
18520;SDS011;9390;51.244;6.982;2023-07-29T12:01:20;6.15;;;1.70;;
18520;SDS011;9390;51.244;6.982;2023-07-29T12:03:54;4.35;;;1.70;;
18520;SDS011;9390;51.244;6.982;2023-07-29T12:06:26;4.10;;;1.80;;
18520;SDS011;9390;51.244;6.982;2023-07-29T12:08:58;3.35;;;1.48;;
18520;SDS011;9390;51.244;6.982;2023-07-29T12:11:30;6.18;;;1.90;;
18520;SDS011;9390;51.244;6.982;2023-07-29T12:14:01;4.25;;;1.75;;
18520;SDS011;9390;51.244;6.982;2023-07-29T12:16:39;3.85;;;1.65;;
18520;SDS011;9390;51.244;6.982;2023-07-29T12:19:13;4.75;;;1.83;;
18520;SDS011;9390;51.244;6.982;2023-07-29T12:21:44;10.68;;;1.85;;
18520;SDS011;9390;51.244;6.982;2023-07-29T12:24:16;4.40;;;1.90;;
18520;SDS011;9390;51.244;6.982;2023-07-29T12:26:47;6.03;;;2.03;;
18520;SDS011;9390;51.244;6.982;2023-07-29T12:29:19;4.68;;;1.63;;
18520;SDS011;9390;51.244;6.982;2023-07-29T12:31:56;6.63;;;1.90;;
18520;SDS011;9390;51.244;6.982;2023-07-29T12:34:30;6.32;;;1.80;;
18520;SDS011;9390;51.244;6.982;2023-07-29T12:37:02;3.88;;;1.80;;
18520;SDS011;9390;51.244;6.982;2023-07-29T12:39:35;4.22;;;1.95;;
18520;SDS011;9390;51.244;6.982;2023-07-29T12:42:11;4.53;;;1.88;;
18520;SDS011;9390;51.244;6.982;2023-07-29T12:44:42;4.10;;;1.58;;
18520;SDS011;9390;51.244;6.982;2023-07-29T12:47:14;4.25;;;1.55;;
18520;SDS011;9390;51.244;6.982;2023-07-29T12:49:47;3.97;;;1.80;;
18520;SDS011;9390;51.244;6.982;2023-07-29T12:54:50;3.35;;;1.52;;
18520;SDS011;9390;51.244;6.982;2023-07-29T12:57:21;3.00;;;1.35;;
18520;SDS011;9390;51.244;6.982;2023-07-29T12:59:52;4.32;;;1.67;;
18520;SDS011;9390;51.244;6.982;2023-07-29T13:02:24;4.18;;;1.52;;
18520;SDS011;9390;51.244;6.982;2023-07-29T13:04:57;4.07;;;1.65;;
18520;SDS011;9390;51.244;6.982;2023-07-29T13:10:00;4.30;;;1.60;;
18520;SDS011;9390;51.244;6.982;2023-07-29T13:12:31;4.00;;;1.75;;
18520;SDS011;9390;51.244;6.982;2023-07-29T13:15:03;3.80;;;1.60;;
18520;SDS011;9390;51.244;6.982;2023-07-29T13:20:09;6.35;;;1.88;;
18520;SDS011;9390;51.244;6.982;2023-07-29T13:22:41;3.63;;;1.65;;
18520;SDS011;9390;51.244;6.982;2023-07-29T13:25:12;5.13;;;2.00;;
18520;SDS011;9390;51.244;6.982;2023-07-29T13:27:44;3.58;;;1.55;;
18520;SDS011;9390;51.244;6.982;2023-07-29T13:30:15;3.13;;;1.70;;
18520;SDS011;9390;51.244;6.982;2023-07-29T13:32:47;4.25;;;1.65;;
18520;SDS011;9390;51.244;6.982;2023-07-29T13:35:19;4.47;;;1.77;;
18520;SDS011;9390;51.244;6.982;2023-07-29T13:40:22;4.05;;;1.70;;
18520;SDS011;9390;51.244;6.982;2023-07-29T13:42:54;3.15;;;1.73;;
18520;SDS011;9390;51.244;6.982;2023-07-29T13:45:25;5.57;;;1.77;;
18520;SDS011;9390;51.244;6.982;2023-07-29T13:47:57;3.65;;;1.70;;
18520;SDS011;9390;51.244;6.982;2023-07-29T13:50:29;4.38;;;1.60;;
18520;SDS011;9390;51.244;6.982;2023-07-29T13:53:01;4.65;;;2.05;;
18520;SDS011;9390;51.244;6.982;2023-07-29T13:55:32;5.47;;;2.00;;
18520;SDS011;9390;51.244;6.982;2023-07-29T13:58:03;3.95;;;1.92;;
18520;SDS011;9390;51.244;6.982;2023-07-29T14:00:35;3.35;;;1.80;;
18520;SDS011;9390;51.244;6.982;2023-07-29T14:03:06;5.25;;;2.00;;
18520;SDS011;9390;51.244;6.982;2023-07-29T14:05:39;3.22;;;1.77;;
18520;SDS011;9390;51.244;6.982;2023-07-29T14:08:10;4.45;;;1.90;;
18520;SDS011;9390;51.244;6.982;2023-07-29T14:10:42;3.78;;;2.00;;
18520;SDS011;9390;51.244;6.982;2023-07-29T14:13:13;3.97;;;1.98;;
18520;SDS011;9390;51.244;6.982;2023-07-29T14:15:44;4.15;;;1.80;;
18520;SDS011;9390;51.244;6.982;2023-07-29T14:18:16;4.13;;;2.00;;
18520;SDS011;9390;51.244;6.982;2023-07-29T14:20:48;3.90;;;1.80;;
18520;SDS011;9390;51.244;6.982;2023-07-29T14:23:21;3.38;;;1.70;;
18520;SDS011;9390;51.244;6.982;2023-07-29T14:25:53;6.47;;;2.00;;
18520;SDS011;9390;51.244;6.982;2023-07-29T14:28:24;7.95;;;2.05;;
18520;SDS011;9390;51.244;6.982;2023-07-29T14:30:55;4.82;;;1.90;;
18520;SDS011;9390;51.244;6.982;2023-07-29T14:33:27;3.33;;;1.73;;
18520;SDS011;9390;51.244;6.982;2023-07-29T14:35:59;6.30;;;2.10;;
18520;SDS011;9390;51.244;6.982;2023-07-29T14:41:02;2.70;;;1.45;;
18520;SDS011;9390;51.244;6.982;2023-07-29T14:43:34;3.95;;;1.63;;
18520;SDS011;9390;51.244;6.982;2023-07-29T14:46:05;4.60;;;1.93;;
18520;SDS011;9390;51.244;6.982;2023-07-29T14:48:37;6.57;;;1.80;;
18520;SDS011;9390;51.244;6.982;2023-07-29T14:51:10;4.80;;;2.17;;
18520;SDS011;9390;51.244;6.982;2023-07-29T14:56:13;6.55;;;2.08;;
18520;SDS011;9390;51.244;6.982;2023-07-29T14:58:47;4.05;;;1.80;;
18520;SDS011;9390;51.244;6.982;2023-07-29T15:03:52;3.78;;;1.98;;
18520;SDS011;9390;51.244;6.982;2023-07-29T15:06:25;3.88;;;2.00;;
18520;SDS011;9390;51.244;6.982;2023-07-29T15:08:56;4.28;;;2.08;;
18520;SDS011;9390;51.244;6.982;2023-07-29T15:11:27;6.07;;;2.10;;
18520;SDS011;9390;51.244;6.982;2023-07-29T15:13:59;4.45;;;2.15;;
18520;SDS011;9390;51.244;6.982;2023-07-29T15:16:30;3.83;;;1.80;;
18520;SDS011;9390;51.244;6.982;2023-07-29T15:19:03;4.88;;;1.95;;
18520;SDS011;9390;51.244;6.982;2023-07-29T15:21:36;4.30;;;1.90;;
18520;SDS011;9390;51.244;6.982;2023-07-29T15:26:39;3.85;;;1.40;;
18520;SDS011;9390;51.244;6.982;2023-07-29T15:29:11;3.40;;;1.50;;
18520;SDS011;9390;51.244;6.982;2023-07-29T15:31:42;4.65;;;1.48;;
18520;SDS011;9390;51.244;6.982;2023-07-29T15:34:14;2.88;;;1.42;;
18520;SDS011;9390;51.244;6.982;2023-07-29T15:36:47;3.03;;;1.40;;
18520;SDS011;9390;51.244;6.982;2023-07-29T15:39:19;3.10;;;1.50;;
18520;SDS011;9390;51.244;6.982;2023-07-29T15:41:50;3.30;;;1.50;;
18520;SDS011;9390;51.244;6.982;2023-07-29T15:44:22;4.45;;;1.60;;
18520;SDS011;9390;51.244;6.982;2023-07-29T15:46:53;3.50;;;1.45;;
18520;SDS011;9390;51.244;6.982;2023-07-29T15:49:25;4.80;;;1.60;;
18520;SDS011;9390;51.244;6.982;2023-07-29T15:51:58;3.92;;;1.48;;
18520;SDS011;9390;51.244;6.982;2023-07-29T15:57:01;3.35;;;1.63;;
18520;SDS011;9390;51.244;6.982;2023-07-29T15:59:32;4.88;;;1.55;;
18520;SDS011;9390;51.244;6.982;2023-07-29T16:02:04;3.55;;;1.63;;
18520;SDS011;9390;51.244;6.982;2023-07-29T16:04:35;4.07;;;1.77;;
18520;SDS011;9390;51.244;6.982;2023-07-29T16:07:08;4.43;;;2.00;;